Terminal Aerodrome Forecast
Issued by NWS Sterling, VA

Current Version | Previous Version | Graphics & Text | Print | Product List | Glossary On
Versions: 1 2 3 4 5 6 7 8 9 10 11 12 13 14 15 16 17 18 19 20 21 22 23 24 25 26
000
FTUS41 KLWX 312300
TAFIAD
TAF
KIAD 312325Z 0100/0206 00000KT 6SM -SHRA OVC060
     FM010400 19004KT P6SM OVC050
     FM011500 25007KT P6SM BKN045
     FM012000 26007KT P6SM SCT050
     FM012300 25005KT P6SM SCT200
     FM020200 00000KT P6SM FEW250=

USA.gov is the U.S. government's official web portal to all federal, state and local government web resources and services.